WetterOnline ( https://www.wetteronline.de )

Wetter aktuell Hilversum

Aktuelles Wetter: Amsterdam-Schiphol (-4m)

6-stündlich | Neueste Meldungen
Ortszeit Temperatur Wetter
Di, 17.09. 2:00 10.3° C bedeckt
Mo, 16.09. 20:00 14.4° C bedeckt
Mo, 16.09. 14:00 14.3° C bedeckt
Mo, 16.09. 8:00 12.9° C Regen
Mo, 16.09. 2:00 15.3° C leichte Schauer
So, 15.09. 20:00 16.5° C bedeckt
So, 15.09. 14:00 20.1° C bedeckt
So, 15.09. 8:00 13.4° C bedeckt
Ortszeit Temperatur Wetter
Di, 17.09. 4:00 9.5° C wolkig
Di, 17.09. 3:55 10° C leicht bewölkt
Di, 17.09. 3:25 10° C leicht bewölkt
Di, 17.09. 3:00 9.7° C leicht bewölkt
Di, 17.09. 2:55 9° C leicht bewölkt
Di, 17.09. 2:25 11° C leicht bewölkt
Di, 17.09. 2:00 10.3° C bedeckt
Di, 17.09. 1:25 10° C leicht bewölkt
Di, 17.09. 1:00 11.2° C leicht bewölkt
Di, 17.09. 0:25 10° C leicht bewölkt
Ortszeit Relative Feuchte Sichtweite
Di, 17.09. 2:00 83% 30 km
Mo, 16.09. 20:00 78% 23 km
Mo, 16.09. 14:00 88% 35 km
Mo, 16.09. 8:00 97% 7 km
Mo, 16.09. 2:00 93% 13 km
So, 15.09. 20:00 85% 40 km
So, 15.09. 14:00 68% 29 km
So, 15.09. 8:00 89% 15 km
Ortszeit Relative Feuchte Sichtweite
Di, 17.09. 4:00 91% 26 km
Di, 17.09. 3:55 87% >10 km
Di, 17.09. 3:25 87% >10 km
Di, 17.09. 3:00 88% 30 km
Di, 17.09. 2:55 87% >10 km
Di, 17.09. 2:25 82% >10 km
Di, 17.09. 2:00 83% 30 km
Di, 17.09. 1:25 87% >10 km
Di, 17.09. 1:00 81% 30 km
Di, 17.09. 0:25 87% >10 km
Ortszeit Niederschlagsmenge Niederschlagsart
Di, 17.09. 2:00 0.0 l/m2 in 6 Std. -
Mo, 16.09. 20:00 2 l/m2 in 12 Std. -
Mo, 16.09. 14:00 1 l/m2 in 6 Std. Regen
Mo, 16.09. 8:00 7 l/m2 in 12 Std. Regen
Mo, 16.09. 2:00 0.2 l/m2 in 6 Std. Regen
So, 15.09. 20:00 0.0 l/m2 in 12 Std. -
So, 15.09. 14:00 0.0 l/m2 in 6 Std. -
So, 15.09. 8:00 0.0 l/m2 in 12 Std. -
Ortszeit Niederschlagsmenge Niederschlagsart
Di, 17.09. 4:00 0.0 l/m2 in 1 Std. -
Di, 17.09. 3:55 keine Meldung -
Di, 17.09. 3:25 keine Meldung -
Di, 17.09. 3:00 0.0 l/m2 in 1 Std. -
Di, 17.09. 2:55 keine Meldung -
Di, 17.09. 2:25 keine Meldung -
Di, 17.09. 2:00 0.0 l/m2 in 1 Std. -
Di, 17.09. 1:25 keine Meldung -
Di, 17.09. 1:00 0.0 l/m2 in 1 Std. -
Di, 17.09. 0:25 keine Meldung -
Ortszeit Stärke Spitze Richtung
km/h Bft. km/h Grad Sektor
Di, 17.09. 2:00 11 2 18 280° W
Mo, 16.09. 20:00 7 2 22 350° N
Mo, 16.09. 14:00 7 2 36 20° N
Mo, 16.09. 8:00 7 2 22 70° O
Mo, 16.09. 2:00 11 2 18 10° N
So, 15.09. 20:00 11 2 32 320° NW
So, 15.09. 14:00 22 4 40 280° W
So, 15.09. 8:00 18 3 22 220° SW
Ortszeit Stärke Spitze Richtung
km/h Bft. km/h Grad Sektor
Di, 17.09. 4:00 4 1 11 270° W
Di, 17.09. 3:55 6 1 - 300° NW
Di, 17.09. 3:25 7 2 - 280° W
Di, 17.09. 3:00 11 2 11 280° W
Di, 17.09. 2:55 11 2 - 280° W
Di, 17.09. 2:25 9 2 - 270° W
Di, 17.09. 2:00 11 2 18 280° W
Di, 17.09. 1:25 9 2 - 270° W
Di, 17.09. 1:00 7 2 18 280° W
Di, 17.09. 0:25 7 2 - 300° NW
Ortszeit Untergrenze Bedeckung Gattung
total tief tief mittel hoch
Di, 17.09. 2:00 - 8/8 8/8 - - -
Mo, 16.09. 20:00 - 8/8 8/8 - - -
Mo, 16.09. 14:00 210 m 8/8 8/8 - - -
Mo, 16.09. 8:00 - 8/8 8/8 - - -
Mo, 16.09. 2:00 180 m 8/8 8/8 - - -
So, 15.09. 20:00 720 m 8/8 8/8 - - -
So, 15.09. 14:00 - 8/8 8/8 - - -
So, 15.09. 8:00 - 8/8 8/8 - - -
Ortszeit Bedeckungsgrad in Achtel und Wolkenuntergrenze
Di, 17.09. 4:00 2(1020m) 8(10500m)
Di, 17.09. 3:55 1-2(900m)
Di, 17.09. 3:25 1-2(900m)
Di, 17.09. 3:00 2(840m) 5(10500m)
Di, 17.09. 2:55 1-2(840m)
Di, 17.09. 2:25 1-2(900m)
Di, 17.09. 2:00 8
Di, 17.09. 1:25 1-2(900m)
Di, 17.09. 1:00 6(10500m)
Di, 17.09. 0:25 1-2(960m)
Ortszeit Luftdruck NN (hPa) Tendenz (hPa in 3 Std.)
Di, 17.09. 2:00 1021 - 0,3
Mo, 16.09. 20:00 1021 + 0,2
Mo, 16.09. 14:00 1021 0,0
Mo, 16.09. 8:00 1020 - 0,5
Mo, 16.09. 2:00 1022 - 0,4
So, 15.09. 20:00 1023 - 0,1
So, 15.09. 14:00 1023 0,0
So, 15.09. 8:00 1023 - 1,0
Ortszeit Luftdruck NN (hPa) Tendenz (hPa in 3 Std.)
Di, 17.09. 4:00 1021 - 0,2
Di, 17.09. 3:55 1021 keine Meldung
Di, 17.09. 3:25 1021 keine Meldung
Di, 17.09. 3:00 1021 - 0,6
Di, 17.09. 2:55 1021 keine Meldung
Di, 17.09. 2:25 1020 keine Meldung
Di, 17.09. 2:00 1021 - 0,3
Di, 17.09. 1:25 1021 keine Meldung
Di, 17.09. 1:00 1021 - 0,2
Di, 17.09. 0:25 1021 keine Meldung
Ortszeit Schneehöhe (cm)
Di, 17.09. 2:00 -
Mo, 16.09. 20:00 -
Mo, 16.09. 14:00 -
Mo, 16.09. 8:00 -
Mo, 16.09. 2:00 -
So, 15.09. 20:00 -
So, 15.09. 14:00 -
So, 15.09. 8:00 -
Ortszeit Schneehöhe (cm)
Di, 17.09. 4:00 -
Di, 17.09. 3:55 -
Di, 17.09. 3:25 -
Di, 17.09. 3:00 -
Di, 17.09. 2:55 -
Di, 17.09. 2:25 -
Di, 17.09. 2:00 -
Di, 17.09. 1:25 -
Di, 17.09. 1:00 -
Di, 17.09. 0:25 -
Link zu dieser Seite / Seite empfehlen

Das Wetter in ...